Time,TemperatureF,DewpointF,PressureIn,WindDirection,WindDirectionDegrees,WindSpeedMPH,WindSpeedGustMPH,Humidity,HourlyPrecipIn,Conditions,Clouds,dailyrainin,SoftwareType,DateUTC
2013-05-26 00:00:00,53.1,35.9,30.17,WNW,292,1.0,6.0,52,0.00,,,-99.99,WeatherLink 5.4,2013-05-26 04:00:00,
2013-05-26 00:15:00,52.3,35.7,30.16,WNW,292,2.0,8.0,53,0.00,,,-99.99,WeatherLink 5.4,2013-05-26 04:15:00,
2013-05-26 00:20:00,52.3,35.7,30.16,WNW,292,2.0,8.0,53,0.00,,,-99.99,WeatherLink 5.4,2013-05-26 04:20:00,
2013-05-26 00:30:00,52.0,35.9,30.17,NW,315,4.0,10.0,54,0.00,,,-99.99,WeatherLink 5.4,2013-05-26 04:30:00,
2013-05-26 00:35:00,52.0,35.9,30.17,NW,315,4.0,10.0,54,0.00,,,-99.99,WeatherLink 5.4,2013-05-26 04:35:00,
2013-05-26 00:45:00,52.0,36.3,30.17,WNW,292,4.0,11.0,55,0.00,,,-99.99,WeatherLink 5.4,2013-05-26 04:45:00,
2013-05-26 01:00:00,51.7,35.6,30.17,WNW,292,3.0,9.0,54,0.00,,,-99.99,WeatherLink 5.4,2013-05-26 05:00:00,
2013-05-26 01:15:00,51.9,35.8,30.16,WNW,292,3.0,10.0,54,0.00,,,-99.99,WeatherLink 5.4,2013-05-26 05:15:00,
2013-05-26 01:30:00,51.6,35.9,30.17,NW,315,1.0,7.0,55,0.00,,,-99.99,WeatherLink 5.4,2013-05-26 05:30:00,
2013-05-26 01:45:00,51.1,35.9,30.17,WNW,292,1.0,7.0,56,0.00,,,-99.99,WeatherLink 5.4,2013-05-26 05:45:00,
2013-05-26 02:00:00,50.7,36.9,30.17,WNW,292,0.0,5.0,59,0.00,,,-99.99,WeatherLink 5.4,2013-05-26 06:00:00,
2013-05-26 02:05:00,50.7,36.9,30.17,WNW,292,0.0,5.0,59,0.00,,,-99.99,WeatherLink 5.4,2013-05-26 06:05:00,
2013-05-26 02:15:00,48.9,36.4,30.17,NNW,337,0.0,1.0,62,0.00,,,-99.99,WeatherLink 5.4,2013-05-26 06:15:00,
2013-05-26 02:20:00,48.9,36.4,30.17,NNW,337,0.0,1.0,62,0.00,,,-99.99,WeatherLink 5.4,2013-05-26 06:20:00,
2013-05-26 02:30:00,47.9,36.7,30.17,North,-999,0.0,0.0,65,0.00,,,-99.99,WeatherLink 5.4,2013-05-26 06:30:00,
2013-05-26 02:45:00,47.3,36.9,30.17,NNW,337,0.0,2.0,67,0.00,,,-99.99,WeatherLink 5.4,2013-05-26 06:45:00,
2013-05-26 03:00:00,47.6,37.2,30.18,NNW,337,0.0,2.0,67,0.00,,,-99.99,WeatherLink 5.4,2013-05-26 07:00:00,
2013-05-26 03:15:00,47.3,38.4,30.17,North,-999,0.0,0.0,71,0.00,,,-99.99,WeatherLink 5.4,2013-05-26 07:15:00,
2013-05-26 03:20:00,47.3,38.4,30.17,North,-999,0.0,0.0,71,0.00,,,-99.99,WeatherLink 5.4,2013-05-26 07:20:00,
2013-05-26 03:30:00,46.4,37.1,30.18,NNW,337,0.0,1.0,70,0.00,,,-99.99,WeatherLink 5.4,2013-05-26 07:30:00,
2013-05-26 03:35:00,46.4,37.1,30.18,NNW,337,0.0,1.0,70,0.00,,,-99.99,WeatherLink 5.4,2013-05-26 07:35:00,
2013-05-26 03:45:00,46.1,36.5,30.18,North,-999,0.0,0.0,69,0.00,,,-99.99,WeatherLink 5.4,2013-05-26 07:45:00,
2013-05-26 03:50:00,46.1,36.5,30.18,North,-999,0.0,0.0,69,0.00,,,-99.99,WeatherLink 5.4,2013-05-26 07:50:00,
2013-05-26 04:00:00,45.5,37.0,30.18,North,-999,0.0,0.0,72,0.00,,,-99.99,WeatherLink 5.4,2013-05-26 08:00:00,
2013-05-26 04:05:00,45.5,37.0,30.18,North,-999,0.0,0.0,72,0.00,,,-99.99,WeatherLink 5.4,2013-05-26 08:05:00,
2013-05-26 04:15:00,44.6,36.8,30.18,North,-999,0.0,0.0,74,0.00,,,-99.99,WeatherLink 5.4,2013-05-26 08:15:00,
2013-05-26 04:30:00,43.9,36.8,30.18,NNW,337,0.0,1.0,76,0.00,,,-99.99,WeatherLink 5.4,2013-05-26 08:30:00,
2013-05-26 04:35:00,43.9,36.8,30.18,NNW,337,0.0,1.0,76,0.00,,,-99.99,WeatherLink 5.4,2013-05-26 08:35:00,
2013-05-26 04:45:00,43.3,36.9,30.18,North,-999,0.0,0.0,78,0.00,,,-99.99,WeatherLink 5.4,2013-05-26 08:45:00,
2013-05-26 05:00:00,42.5,37.1,30.19,NNW,337,0.0,1.0,81,0.00,,,-99.99,WeatherLink 5.4,2013-05-26 09:00:00,
2013-05-26 05:05:00,42.5,37.1,30.19,NNW,337,0.0,1.0,81,0.00,,,-99.99,WeatherLink 5.4,2013-05-26 09:05:00,
2013-05-26 05:15:00,42.1,37.3,30.19,NNW,337,0.0,2.0,83,0.00,,,-99.99,WeatherLink 5.4,2013-05-26 09:15:00,
2013-05-26 05:20:00,42.1,37.3,30.19,NNW,337,0.0,2.0,83,0.00,,,-99.99,WeatherLink 5.4,2013-05-26 09:20:00,
2013-05-26 05:30:00,41.3,36.8,30.20,North,-999,0.0,0.0,84,0.00,,,-99.99,WeatherLink 5.4,2013-05-26 09:30:00,
2013-05-26 05:35:00,41.3,36.8,30.20,North,-999,0.0,0.0,84,0.00,,,-99.99,WeatherLink 5.4,2013-05-26 09:35:00,
2013-05-26 05:45:00,40.8,36.9,30.20,NNW,337,0.0,1.0,86,0.00,,,-99.99,WeatherLink 5.4,2013-05-26 09:45:00,
2013-05-26 06:00:00,40.2,36.3,30.20,North,-999,0.0,0.0,86,0.00,,,-99.99,WeatherLink 5.4,2013-05-26 10:00:00,
2013-05-26 06:05:00,40.2,36.3,30.20,North,-999,0.0,0.0,86,0.00,,,-99.99,WeatherLink 5.4,2013-05-26 10:05:00,
2013-05-26 06:15:00,39.9,36.3,30.21,North,-999,0.0,0.0,87,0.00,,,-99.99,WeatherLink 5.4,2013-05-26 10:15:00,
2013-05-26 06:30:00,39.9,36.6,30.22,North,-999,0.0,0.0,88,0.00,,,-99.99,WeatherLink 5.4,2013-05-26 10:30:00,
2013-05-26 06:35:00,39.9,36.6,30.22,North,-999,0.0,0.0,88,0.00,,,-99.99,WeatherLink 5.4,2013-05-26 10:35:00,
2013-05-26 06:45:00,40.2,37.2,30.22,North,-999,0.0,0.0,89,0.00,,,-99.99,WeatherLink 5.4,2013-05-26 10:45:00,
2013-05-26 07:00:00,41.2,38.5,30.22,North,-999,0.0,0.0,90,0.00,,,-99.99,WeatherLink 5.4,2013-05-26 11:00:00,
2013-05-26 07:05:00,41.2,38.5,30.22,North,-999,0.0,0.0,90,0.00,,,-99.99,WeatherLink 5.4,2013-05-26 11:05:00,
2013-05-26 07:15:00,42.5,40.1,30.23,North,-999,0.0,0.0,91,0.00,,,-99.99,WeatherLink 5.4,2013-05-26 11:15:00,
2013-05-26 07:30:00,43.9,40.9,30.23,NNW,337,0.0,1.0,89,0.00,,,-99.99,WeatherLink 5.4,2013-05-26 11:30:00,
2013-05-26 07:35:00,43.9,40.9,30.23,NNW,337,0.0,1.0,89,0.00,,,-99.99,WeatherLink 5.4,2013-05-26 11:35:00,
2013-05-26 07:45:00,45.7,40.8,30.23,NNW,337,0.0,3.0,83,0.00,,,-99.99,WeatherLink 5.4,2013-05-26 11:45:00,
2013-05-26 07:50:00,45.7,40.8,30.23,NNW,337,0.0,3.0,83,0.00,,,-99.99,WeatherLink 5.4,2013-05-26 11:50:00,
2013-05-26 08:00:00,49.1,38.6,30.22,NW,315,3.0,8.0,67,0.00,,,-99.99,WeatherLink 5.4,2013-05-26 12:00:00,
2013-05-26 08:05:00,49.1,38.6,30.22,NW,315,3.0,8.0,67,0.00,,,-99.99,WeatherLink 5.4,2013-05-26 12:05:00,
2013-05-26 08:15:00,50.4,37.9,30.22,WNW,292,4.0,11.0,62,0.00,,,-99.99,WeatherLink 5.4,2013-05-26 12:15:00,
2013-05-26 08:20:00,50.4,37.9,30.22,WNW,292,4.0,11.0,62,0.00,,,-99.99,WeatherLink 5.4,2013-05-26 12:20:00,
2013-05-26 08:30:00,51.3,37.9,30.23,West,270,5.0,14.0,60,0.00,,,-99.99,WeatherLink 5.4,2013-05-26 12:30:00,
2013-05-26 08:35:00,51.3,37.9,30.23,West,270,5.0,14.0,60,0.00,,,-99.99,WeatherLink 5.4,2013-05-26 12:35:00,
2013-05-26 08:45:00,52.3,38.4,30.23,WNW,292,5.0,13.0,59,0.00,,,-99.99,WeatherLink 5.4,2013-05-26 12:45:00,
2013-05-26 08:50:00,52.3,38.4,30.23,WNW,292,5.0,13.0,59,0.00,,,-99.99,WeatherLink 5.4,2013-05-26 12:50:00,
2013-05-26 09:00:00,53.1,37.3,30.23,West,270,7.0,14.0,55,0.00,,,-99.99,WeatherLink 5.4,2013-05-26 13:00:00,
2013-05-26 09:05:00,53.1,37.3,30.23,West,270,7.0,14.0,55,0.00,,,-99.99,WeatherLink 5.4,2013-05-26 13:05:00,
2013-05-26 09:15:00,53.8,38.0,30.22,WNW,292,6.0,13.0,55,0.00,,,-99.99,WeatherLink 5.4,2013-05-26 13:15:00,
2013-05-26 09:20:00,53.8,38.0,30.22,WNW,292,6.0,13.0,55,0.00,,,-99.99,WeatherLink 5.4,2013-05-26 13:20:00,
2013-05-26 09:30:00,54.5,38.2,30.22,WNW,292,6.0,16.0,54,0.00,,,-99.99,WeatherLink 5.4,2013-05-26 13:30:00,
2013-05-26 09:45:00,55.3,38.4,30.21,West,270,5.0,12.0,53,0.00,,,-99.99,WeatherLink 5.4,2013-05-26 13:45:00,
2013-05-26 10:00:00,55.7,38.3,30.21,WNW,292,7.0,21.0,52,0.00,,,-99.99,WeatherLink 5.4,2013-05-26 14:00:00,
2013-05-26 10:15:00,56.6,38.2,30.21,WNW,292,6.0,17.0,50,0.00,,,-99.99,WeatherLink 5.4,2013-05-26 14:15:00,
2013-05-26 10:30:00,57.3,38.3,30.21,West,270,7.0,20.0,49,0.00,,,-99.99,WeatherLink 5.4,2013-05-26 14:30:00,
2013-05-26 10:45:00,58.3,38.7,30.20,NNW,337,6.0,17.0,48,0.00,,,-99.99,WeatherLink 5.4,2013-05-26 14:45:00,
2013-05-26 10:50:00,58.3,38.7,30.20,NNW,337,6.0,17.0,48,0.00,,,-99.99,WeatherLink 5.4,2013-05-26 14:50:00,
2013-05-26 11:00:00,58.7,37.4,30.20,NNW,337,7.0,20.0,45,0.00,,,-99.99,WeatherLink 5.4,2013-05-26 15:00:00,
2013-05-26 11:05:00,58.7,37.4,30.20,NNW,337,7.0,20.0,45,0.00,,,-99.99,WeatherLink 5.4,2013-05-26 15:05:00,
2013-05-26 11:15:00,60.1,40.3,30.19,West,270,6.0,20.0,48,0.00,,,-99.99,WeatherLink 5.4,2013-05-26 15:15:00,
2013-05-26 11:20:00,60.1,40.3,30.19,West,270,6.0,20.0,48,0.00,,,-99.99,WeatherLink 5.4,2013-05-26 15:20:00,
2013-05-26 11:30:00,60.4,40.6,30.20,WNW,292,7.0,21.0,48,0.00,,,-99.99,WeatherLink 5.4,2013-05-26 15:30:00,
2013-05-26 11:45:00,60.7,38.1,30.20,West,270,6.0,13.0,43,0.00,,,-99.99,WeatherLink 5.4,2013-05-26 15:45:00,
2013-05-26 12:00:00,61.5,37.6,30.20,NW,315,6.0,16.0,41,0.00,,,-99.99,WeatherLink 5.4,2013-05-26 16:00:00,
2013-05-26 12:15:00,62.1,37.5,30.20,WNW,292,6.0,16.0,40,0.00,,,-99.99,WeatherLink 5.4,2013-05-26 16:15:00,
2013-05-26 12:30:00,62.0,38.0,30.19,West,270,5.0,17.0,41,0.00,,,-99.99,WeatherLink 5.4,2013-05-26 16:30:00,
2013-05-26 12:35:00,62.0,38.0,30.19,West,270,5.0,17.0,41,0.00,,,-99.99,WeatherLink 5.4,2013-05-26 16:35:00,
2013-05-26 12:45:00,62.9,39.4,30.19,West,270,5.0,16.0,42,0.00,,,-99.99,WeatherLink 5.4,2013-05-26 16:45:00,
2013-05-26 12:50:00,62.9,39.4,30.19,West,270,5.0,16.0,42,0.00,,,-99.99,WeatherLink 5.4,2013-05-26 16:50:00,
2013-05-26 13:00:00,63.2,36.5,30.18,WNW,292,4.0,17.0,37,0.00,,,-99.99,WeatherLink 5.4,2013-05-26 17:00:00,
2013-05-26 13:05:00,63.2,36.5,30.18,WNW,292,4.0,17.0,37,0.00,,,-99.99,WeatherLink 5.4,2013-05-26 17:05:00,
2013-05-26 13:15:00,64.3,40.1,30.17,West,270,6.0,13.0,41,0.00,,,-99.99,WeatherLink 5.4,2013-05-26 17:15:00,
2013-05-26 13:20:00,64.3,40.1,30.17,West,270,6.0,13.0,41,0.00,,,-99.99,WeatherLink 5.4,2013-05-26 17:20:00,
2013-05-26 13:30:00,64.7,39.8,30.17,West,270,5.0,16.0,40,0.00,,,-99.99,WeatherLink 5.4,2013-05-26 17:30:00,
2013-05-26 13:45:00,65.3,36.9,30.16,West,270,5.0,14.0,35,0.00,,,-99.99,WeatherLink 5.4,2013-05-26 17:45:00,
2013-05-26 14:00:00,65.8,35.1,30.16,WNW,292,6.0,18.0,32,0.00,,,-99.99,WeatherLink 5.4,2013-05-26 18:00:00,
2013-05-26 14:15:00,66.6,37.3,30.15,West,270,6.0,13.0,34,0.00,,,-99.99,WeatherLink 5.4,2013-05-26 18:15:00,
2013-05-26 14:30:00,67.4,40.9,30.16,West,270,6.0,19.0,38,0.00,,,-99.99,WeatherLink 5.4,2013-05-26 18:30:00,
2013-05-26 14:35:00,67.4,40.9,30.16,West,270,6.0,19.0,38,0.00,,,-99.99,WeatherLink 5.4,2013-05-26 18:35:00,
2013-05-26 14:45:00,67.3,35.6,30.16,WNW,292,7.0,19.0,31,0.00,,,-99.99,WeatherLink 5.4,2013-05-26 18:45:00,
2013-05-26 15:00:00,67.6,37.5,30.15,NW,315,7.0,21.0,33,0.00,,,-99.99,WeatherLink 5.4,2013-05-26 19:00:00,
2013-05-26 15:05:00,67.6,37.5,30.15,NW,315,7.0,21.0,33,0.00,,,-99.99,WeatherLink 5.4,2013-05-26 19:05:00,
2013-05-26 15:15:00,67.6,37.5,30.14,West,270,7.0,17.0,33,0.00,,,-99.99,WeatherLink 5.4,2013-05-26 19:15:00,
2013-05-26 15:20:00,67.6,37.5,30.14,West,270,7.0,17.0,33,0.00,,,-99.99,WeatherLink 5.4,2013-05-26 19:20:00,
2013-05-26 15:30:00,67.8,37.6,30.14,NW,315,7.0,18.0,33,0.00,,,-99.99,WeatherLink 5.4,2013-05-26 19:30:00,
2013-05-26 15:45:00,68.1,37.1,30.14,West,270,6.0,21.0,32,0.00,,,-99.99,WeatherLink 5.4,2013-05-26 19:45:00,
2013-05-26 15:50:00,68.1,37.1,30.14,West,270,6.0,21.0,32,0.00,,,-99.99,WeatherLink 5.4,2013-05-26 19:50:00,
2013-05-26 16:00:00,68.3,37.3,30.14,West,270,8.0,22.0,32,0.00,,,-99.99,WeatherLink 5.4,2013-05-26 20:00:00,
2013-05-26 16:15:00,68.6,39.8,30.14,West,270,8.0,19.0,35,0.00,,,-99.99,WeatherLink 5.4,2013-05-26 20:15:00,
2013-05-26 16:20:00,68.6,39.8,30.14,West,270,8.0,19.0,35,0.00,,,-99.99,WeatherLink 5.4,2013-05-26 20:20:00,
2013-05-26 16:30:00,69.4,38.2,30.14,NW,315,7.0,17.0,32,0.00,,,-99.99,WeatherLink 5.4,2013-05-26 20:30:00,
2013-05-26 16:45:00,69.1,38.8,30.14,NNW,337,7.0,20.0,33,0.00,,,-99.99,WeatherLink 5.4,2013-05-26 20:45:00,
2013-05-26 17:00:00,68.9,38.6,30.14,NW,315,8.0,18.0,33,0.00,,,-99.99,WeatherLink 5.4,2013-05-26 21:00:00,
2013-05-26 17:05:00,68.9,38.6,30.14,NW,315,8.0,18.0,33,0.00,,,-99.99,WeatherLink 5.4,2013-05-26 21:05:00,
2013-05-26 17:15:00,69.3,38.2,30.14,NW,315,7.0,16.0,32,0.00,,,-99.99,WeatherLink 5.4,2013-05-26 21:15:00,
2013-05-26 17:20:00,69.3,38.2,30.14,NW,315,7.0,16.0,32,0.00,,,-99.99,WeatherLink 5.4,2013-05-26 21:20:00,
2013-05-26 17:30:00,68.9,37.0,30.15,West,270,8.0,18.0,31,0.00,,,-99.99,WeatherLink 5.4,2013-05-26 21:30:00,
2013-05-26 17:45:00,69.4,38.2,30.14,NW,315,7.0,17.0,32,0.00,,,-99.99,WeatherLink 5.4,2013-05-26 21:45:00,
2013-05-26 18:00:00,69.3,38.9,30.14,NW,315,6.0,16.0,33,0.00,,,-99.99,WeatherLink 5.4,2013-05-26 22:00:00,
2013-05-26 18:05:00,69.3,38.9,30.14,NW,315,6.0,16.0,33,0.00,,,-99.99,WeatherLink 5.4,2013-05-26 22:05:00,
2013-05-26 18:15:00,68.6,39.1,30.14,WNW,292,6.0,16.0,34,0.00,,,-99.99,WeatherLink 5.4,2013-05-26 22:15:00,
2013-05-26 18:20:00,68.6,39.1,30.14,WNW,292,6.0,16.0,34,0.00,,,-99.99,WeatherLink 5.4,2013-05-26 22:20:00,
2013-05-26 18:30:00,68.4,37.4,30.14,West,270,6.0,17.0,32,0.00,,,-99.99,WeatherLink 5.4,2013-05-26 22:30:00,
2013-05-26 18:45:00,68.3,38.1,30.14,WNW,292,5.0,16.0,33,0.00,,,-99.99,WeatherLink 5.4,2013-05-26 22:45:00,
2013-05-26 18:50:00,68.3,38.1,30.14,WNW,292,5.0,16.0,33,0.00,,,-99.99,WeatherLink 5.4,2013-05-26 22:50:00,
2013-05-26 19:00:00,68.3,37.3,30.15,NW,315,3.0,15.0,32,0.00,,,-99.99,WeatherLink 5.4,2013-05-26 23:00:00,
2013-05-26 19:05:00,68.3,37.3,30.15,NW,315,3.0,15.0,32,0.00,,,-99.99,WeatherLink 5.4,2013-05-26 23:05:00,
2013-05-26 19:15:00,68.1,37.9,30.14,WNW,292,4.0,11.0,33,0.00,,,-99.99,WeatherLink 5.4,2013-05-26 23:15:00,
2013-05-26 19:20:00,68.1,37.9,30.14,WNW,292,4.0,11.0,33,0.00,,,-99.99,WeatherLink 5.4,2013-05-26 23:20:00,
2013-05-26 19:30:00,66.9,38.3,30.14,WNW,292,4.0,13.0,35,0.00,,,-99.99,WeatherLink 5.4,2013-05-26 23:30:00,
2013-05-26 19:35:00,66.9,38.3,30.14,WNW,292,4.0,13.0,35,0.00,,,-99.99,WeatherLink 5.4,2013-05-26 23:35:00,
2013-05-26 19:45:00,66.1,37.6,30.15,NW,315,3.0,10.0,35,0.00,,,-99.99,WeatherLink 5.4,2013-05-26 23:45:00,
2013-05-26 20:00:00,65.6,37.9,30.15,NW,315,3.0,11.0,36,0.00,,,-99.99,WeatherLink 5.4,2013-05-27 00:00:00,
2013-05-26 20:15:00,64.8,37.9,30.15,NNW,337,1.0,6.0,37,0.00,,,-99.99,WeatherLink 5.4,2013-05-27 00:15:00,
2013-05-26 20:30:00,63.9,38.4,30.16,NW,315,0.0,5.0,39,0.00,,,-99.99,WeatherLink 5.4,2013-05-27 00:30:00,
2013-05-26 20:35:00,63.9,38.4,30.16,NW,315,0.0,5.0,39,0.00,,,-99.99,WeatherLink 5.4,2013-05-27 00:35:00,
2013-05-26 20:45:00,62.6,39.2,30.16,WNW,292,0.0,5.0,42,0.00,,,-99.99,WeatherLink 5.4,2013-05-27 00:45:00,
2013-05-26 21:00:00,61.2,39.7,30.17,NW,315,0.0,2.0,45,0.00,,,-99.99,WeatherLink 5.4,2013-05-27 01:00:00,
2013-05-26 21:05:00,61.2,39.7,30.17,NW,315,0.0,2.0,45,0.00,,,-99.99,WeatherLink 5.4,2013-05-27 01:05:00,
2013-05-26 21:15:00,59.6,39.3,30.17,NW,315,0.0,1.0,47,0.00,,,-99.99,WeatherLink 5.4,2013-05-27 01:15:00,
2013-05-26 21:30:00,58.3,40.7,30.18,North,-999,0.0,0.0,52,0.00,,,-99.99,WeatherLink 5.4,2013-05-27 01:30:00,
2013-05-26 21:45:00,56.3,39.9,30.19,North,-999,0.0,0.0,54,0.00,,,-99.99,WeatherLink 5.4,2013-05-27 01:45:00,
2013-05-26 21:50:00,56.3,39.9,30.19,North,-999,0.0,0.0,54,0.00,,,-99.99,WeatherLink 5.4,2013-05-27 01:50:00,
2013-05-26 22:00:00,55.6,41.5,30.20,North,-999,0.0,0.0,59,0.00,,,-99.99,WeatherLink 5.4,2013-05-27 02:00:00,
2013-05-26 22:15:00,53.5,40.4,30.20,NW,315,0.0,2.0,61,0.00,,,-99.99,WeatherLink 5.4,2013-05-27 02:15:00,
2013-05-26 22:20:00,53.5,40.4,30.20,NW,315,0.0,2.0,61,0.00,,,-99.99,WeatherLink 5.4,2013-05-27 02:20:00,
2013-05-26 22:30:00,52.9,41.8,30.21,NW,315,0.0,1.0,66,0.00,,,-99.99,WeatherLink 5.4,2013-05-27 02:30:00,
2013-05-26 22:35:00,52.9,41.8,30.21,NW,315,0.0,1.0,66,0.00,,,-99.99,WeatherLink 5.4,2013-05-27 02:35:00,
2013-05-26 22:45:00,51.6,42.5,30.22,North,-999,0.0,0.0,71,0.00,,,-99.99,WeatherLink 5.4,2013-05-27 02:45:00,
2013-05-26 23:00:00,50.4,41.7,30.22,North,-999,0.0,0.0,72,0.00,,,-99.99,WeatherLink 5.4,2013-05-27 03:00:00,
2013-05-26 23:15:00,49.6,41.7,30.22,North,-999,0.0,0.0,74,0.00,,,-99.99,WeatherLink 5.4,2013-05-27 03:15:00,
2013-05-26 23:30:00,48.6,41.7,30.23,North,-999,0.0,0.0,77,0.00,,,-99.99,WeatherLink 5.4,2013-05-27 03:30:00,
2013-05-26 23:35:00,48.6,41.7,30.23,North,-999,0.0,0.0,77,0.00,,,-99.99,WeatherLink 5.4,2013-05-27 03:35:00,
2013-05-26 23:45:00,47.9,41.7,30.24,North,-999,0.0,0.0,79,0.00,,,-99.99,WeatherLink 5.4,2013-05-27 03:45:00,
2013-05-26 23:50:00,47.9,41.7,30.24,North,-999,0.0,0.0,79,0.00,,,-99.99,WeatherLink 5.4,2013-05-27 03:50:00,